createdAt,value
2023-02-02T00:00:41.315Z,4.87
2023-02-02T00:03:03.660Z,4.40
2023-02-02T00:05:26.194Z,6.10
2023-02-02T00:07:48.465Z,6.13
2023-02-02T00:10:10.996Z,5.03
2023-02-02T00:12:33.198Z,5.30
2023-02-02T00:14:55.449Z,5.03
2023-02-02T00:17:17.650Z,5.47
2023-02-02T00:19:39.844Z,4.87
2023-02-02T00:22:02.118Z,6.13
2023-02-02T00:24:24.829Z,5.07
2023-02-02T00:26:48.737Z,5.07
2023-02-02T00:29:15.797Z,5.90
2023-02-02T00:31:38.005Z,5.50
2023-02-02T00:34:00.236Z,5.33
2023-02-02T00:36:24.346Z,5.10
2023-02-02T00:38:46.966Z,5.07
2023-02-02T00:41:09.259Z,5.73
2023-02-02T00:43:31.472Z,5.40
2023-02-02T00:45:54.375Z,5.20
2023-02-02T00:48:17.352Z,6.63
2023-02-02T00:50:39.672Z,6.70
2023-02-02T00:53:01.866Z,5.47
2023-02-02T00:55:24.400Z,5.77
2023-02-02T00:57:47.002Z,5.80
2023-02-02T01:00:10.180Z,5.63
2023-02-02T01:02:32.426Z,5.77
2023-02-02T01:04:54.737Z,5.27
2023-02-02T01:07:16.950Z,6.67
2023-02-02T01:09:39.225Z,5.80
2023-02-02T01:12:01.374Z,5.97
2023-02-02T01:14:23.885Z,6.07
2023-02-02T01:16:46.125Z,5.60
2023-02-02T01:19:08.960Z,5.60
2023-02-02T01:21:31.178Z,5.53
2023-02-02T01:23:53.455Z,6.07
2023-02-02T01:26:16.694Z,5.33
2023-02-02T01:28:39.969Z,5.80
2023-02-02T01:31:06.825Z,5.27
2023-02-02T01:33:29.101Z,5.50
2023-02-02T01:35:55.337Z,6.20
2023-02-02T01:38:19.295Z,5.40
2023-02-02T01:40:47.606Z,5.17
2023-02-02T01:43:20.839Z,4.57
2023-02-02T01:45:43.161Z,5.33
2023-02-02T01:48:06.174Z,6.23
2023-02-02T01:50:30.412Z,6.70
2023-02-02T01:52:54.029Z,5.53
2023-02-02T01:55:17.852Z,6.07
2023-02-02T01:57:46.104Z,5.20
2023-02-02T02:00:13.438Z,5.77
2023-02-02T02:02:36.021Z,5.37
2023-02-02T02:05:00.093Z,5.33
2023-02-02T02:07:22.771Z,6.13
2023-02-02T02:09:45.019Z,4.60
2023-02-02T02:12:15.619Z,5.30
2023-02-02T02:14:57.048Z,4.93
2023-02-02T02:17:31.914Z,5.73
2023-02-02T02:20:17.580Z,4.57
2023-02-02T02:23:12.674Z,5.13
2023-02-02T02:26:02.621Z,5.83
2023-02-02T02:28:34.285Z,5.07
2023-02-02T02:31:20.906Z,5.10
2023-02-02T02:34:02.238Z,5.47
2023-02-02T02:36:30.642Z,5.70
2023-02-02T02:38:57.809Z,5.90
2023-02-02T02:41:21.827Z,6.20
2023-02-02T02:43:46.779Z,6.57
2023-02-02T02:46:09.750Z,6.13
2023-02-02T02:48:32.237Z,5.57
2023-02-02T02:50:54.428Z,6.43
2023-02-02T02:53:19.006Z,6.80
2023-02-02T02:55:50.097Z,6.03
2023-02-02T02:58:31.680Z,6.07
2023-02-02T03:00:54.010Z,6.03
2023-02-02T03:03:34.671Z,6.57
2023-02-02T03:06:15.776Z,6.13
2023-02-02T03:08:37.999Z,5.97
2023-02-02T03:11:02.449Z,5.60
2023-02-02T03:13:25.165Z,5.80
2023-02-02T03:15:47.633Z,5.70
2023-02-02T03:18:10.025Z,5.27
2023-02-02T03:20:32.277Z,5.30
2023-02-02T03:22:54.542Z,5.73
2023-02-02T03:25:16.841Z,5.70
2023-02-02T03:27:39.839Z,5.73
2023-02-02T03:30:02.153Z,5.17
2023-02-02T03:32:24.348Z,4.93
2023-02-02T03:34:46.626Z,5.33
2023-02-02T03:37:09.038Z,5.97
2023-02-02T03:39:31.228Z,5.20
2023-02-02T03:41:53.426Z,4.23
2023-02-02T03:44:15.745Z,5.60
2023-02-02T03:46:38.054Z,5.87
2023-02-02T03:49:00.464Z,5.93
2023-02-02T03:51:22.702Z,4.70
2023-02-02T03:53:44.960Z,5.13
2023-02-02T03:56:07.738Z,6.00
2023-02-02T03:58:30.122Z,5.77
2023-02-02T04:00:52.474Z,6.60
2023-02-02T04:03:14.681Z,5.73
2023-02-02T04:05:36.905Z,5.33
2023-02-02T04:07:59.188Z,5.70
2023-02-02T04:10:21.389Z,7.30
2023-02-02T04:12:43.793Z,5.40
2023-02-02T04:15:06.437Z,5.03
2023-02-02T04:17:28.678Z,5.73
2023-02-02T04:19:56.860Z,6.33
2023-02-02T04:22:19.083Z,6.20
2023-02-02T04:24:41.259Z,5.60
2023-02-02T04:27:03.555Z,6.03
2023-02-02T04:29:26.319Z,6.13
2023-02-02T04:31:48.564Z,6.03
2023-02-02T04:34:10.854Z,5.37
2023-02-02T04:36:33.203Z,6.20
2023-02-02T04:38:55.959Z,5.33
2023-02-02T04:41:21.175Z,5.97
2023-02-02T04:43:43.449Z,6.10
2023-02-02T04:46:05.865Z,5.70
2023-02-02T04:48:28.131Z,4.87
2023-02-02T04:50:50.467Z,6.70
2023-02-02T04:53:12.706Z,5.77
2023-02-02T04:55:38.849Z,5.77
2023-02-02T04:58:01.112Z,5.67
2023-02-02T05:00:23.536Z,5.10
2023-02-02T05:02:45.776Z,4.73
2023-02-02T05:05:10.167Z,5.60
2023-02-02T05:07:32.517Z,5.53
2023-02-02T05:09:54.693Z,5.47
2023-02-02T05:12:17.161Z,5.50
2023-02-02T05:14:39.371Z,5.73
2023-02-02T05:17:01.674Z,5.50
2023-02-02T05:19:23.949Z,5.73
2023-02-02T05:21:50.613Z,4.70
2023-02-02T05:24:13.389Z,5.87
2023-02-02T05:26:35.654Z,5.27
2023-02-02T05:28:58.009Z,4.47
2023-02-02T05:31:20.611Z,5.47
2023-02-02T05:33:43.363Z,4.53
2023-02-02T05:36:05.982Z,4.87
2023-02-02T05:38:28.158Z,4.87
2023-02-02T05:40:50.369Z,5.33
2023-02-02T05:43:12.595Z,5.17
2023-02-02T05:45:41.402Z,4.33
2023-02-02T05:48:03.592Z,4.93
2023-02-02T05:50:25.878Z,4.70
2023-02-02T05:52:57.540Z,5.30
2023-02-02T05:55:20.050Z,5.30
2023-02-02T05:57:42.313Z,5.60
2023-02-02T06:00:05.096Z,5.13
2023-02-02T06:02:34.316Z,4.40
2023-02-02T06:04:56.890Z,4.73
2023-02-02T06:07:19.169Z,5.43
2023-02-02T06:09:41.374Z,4.43
2023-02-02T06:12:03.808Z,5.03
2023-02-02T06:14:26.045Z,4.67
2023-02-02T06:16:48.223Z,3.97
2023-02-02T06:19:10.490Z,4.83
2023-02-02T06:21:32.997Z,5.40
2023-02-02T06:23:55.261Z,5.00
2023-02-02T06:26:17.887Z,5.43
2023-02-02T06:28:40.159Z,4.50
2023-02-02T06:31:06.418Z,4.87
2023-02-02T06:33:28.771Z,4.43
2023-02-02T06:35:50.967Z,4.60
2023-02-02T06:38:13.175Z,4.10
2023-02-02T06:40:35.505Z,4.60
2023-02-02T06:43:04.261Z,5.30
2023-02-02T06:45:26.821Z,4.70
2023-02-02T06:47:49.197Z,4.43
2023-02-02T06:50:12.241Z,4.43
2023-02-02T06:52:34.470Z,5.27
2023-02-02T06:54:56.812Z,10.97
2023-02-02T06:57:19.057Z,4.20
2023-02-02T06:59:41.650Z,4.40
2023-02-02T07:02:03.864Z,4.87
2023-02-02T07:04:26.066Z,5.20
2023-02-02T07:06:48.479Z,4.60
2023-02-02T07:09:14.036Z,4.97
2023-02-02T07:11:44.427Z,4.70
2023-02-02T07:14:08.362Z,5.03
2023-02-02T07:16:31.115Z,4.37
2023-02-02T07:18:53.558Z,4.00
2023-02-02T07:21:20.139Z,4.50
2023-02-02T07:23:42.764Z,4.63
2023-02-02T07:26:06.503Z,4.40
2023-02-02T07:28:29.297Z,4.73
2023-02-02T07:30:51.781Z,5.43
2023-02-02T07:33:17.582Z,4.30
2023-02-02T07:35:43.786Z,4.67
2023-02-02T07:38:09.365Z,4.40
2023-02-02T07:40:34.192Z,5.33
2023-02-02T07:43:01.647Z,4.57
2023-02-02T07:45:26.800Z,4.70
2023-02-02T07:47:58.495Z,4.93
2023-02-02T07:50:20.822Z,4.80
2023-02-02T07:52:43.282Z,5.23
2023-02-02T07:55:14.432Z,4.73
2023-02-02T07:57:39.885Z,5.17
2023-02-02T08:00:02.272Z,5.37
2023-02-02T08:02:37.705Z,4.63
2023-02-02T08:05:00.091Z,4.43
2023-02-02T08:07:24.640Z,4.03
2023-02-02T08:09:55.579Z,5.07
2023-02-02T08:12:18.307Z,4.33
2023-02-02T08:14:40.663Z,4.57
2023-02-02T08:17:05.852Z,4.40
2023-02-02T08:19:28.203Z,4.53
2023-02-02T08:21:50.634Z,4.63
2023-02-02T08:24:15.952Z,4.80
2023-02-02T08:26:38.222Z,4.90
2023-02-02T08:29:03.871Z,4.57
2023-02-02T08:31:28.337Z,5.20
2023-02-02T08:33:51.527Z,4.83
2023-02-02T08:36:18.110Z,5.00
2023-02-02T08:38:40.389Z,4.60
2023-02-02T08:41:06.361Z,4.90
2023-02-02T08:43:29.649Z,4.63
2023-02-02T08:46:03.435Z,4.67
2023-02-02T08:48:26.877Z,5.43
2023-02-02T08:50:56.245Z,5.27
2023-02-02T08:53:18.461Z,4.23
2023-02-02T08:55:40.655Z,4.90
2023-02-02T08:58:02.915Z,4.60
2023-02-02T09:00:25.576Z,4.77
2023-02-02T09:02:51.122Z,4.67
2023-02-02T09:05:13.366Z,3.80
2023-02-02T09:07:35.793Z,4.27
2023-02-02T09:09:58.387Z,4.20
2023-02-02T09:12:20.759Z,3.87
2023-02-02T09:14:43.009Z,4.30
2023-02-02T09:17:05.330Z,4.40
2023-02-02T09:19:27.741Z,4.33
2023-02-02T09:21:50.405Z,4.70
2023-02-02T09:24:13.670Z,4.80
2023-02-02T09:26:35.969Z,4.43
2023-02-02T09:29:02.404Z,4.60
2023-02-02T09:31:25.500Z,4.00
2023-02-02T09:33:48.295Z,5.07
2023-02-02T09:36:12.078Z,5.43
2023-02-02T09:38:34.438Z,4.60
2023-02-02T09:40:57.741Z,4.23
2023-02-02T09:43:22.760Z,5.53
2023-02-02T09:45:48.517Z,4.77
2023-02-02T09:48:40.181Z,4.03
2023-02-02T09:51:06.805Z,4.10
2023-02-02T09:53:55.174Z,4.63
2023-02-02T09:56:30.852Z,4.27
2023-02-02T09:58:55.449Z,5.10
2023-02-02T10:01:17.728Z,4.00
2023-02-02T10:03:51.071Z,3.93
2023-02-02T10:06:32.370Z,4.20
2023-02-02T10:08:56.394Z,4.07
2023-02-02T10:11:24.687Z,3.57
2023-02-02T10:13:48.885Z,4.83
2023-02-02T10:16:17.528Z,4.93
2023-02-02T10:18:49.661Z,4.33
2023-02-02T10:21:28.273Z,3.30
2023-02-02T10:23:50.512Z,4.40
2023-02-02T10:26:23.370Z,4.33
2023-02-02T10:29:06.030Z,4.33
2023-02-02T10:31:45.036Z,3.60
2023-02-02T10:34:18.690Z,3.30
2023-02-02T10:36:59.925Z,3.73
2023-02-02T10:39:54.698Z,3.93
2023-02-02T10:42:26.458Z,3.80
2023-02-02T10:44:51.591Z,4.00
2023-02-02T10:47:16.386Z,3.63
2023-02-02T10:49:39.870Z,3.60
2023-02-02T10:52:05.996Z,3.50
2023-02-02T10:54:56.613Z,4.40
2023-02-02T10:57:24.424Z,3.30
2023-02-02T11:00:21.599Z,4.33
2023-02-02T11:02:45.489Z,3.30
2023-02-02T11:05:30.997Z,3.37
2023-02-02T11:07:54.499Z,3.30
2023-02-02T11:10:16.893Z,3.30
2023-02-02T11:12:43.130Z,3.43
2023-02-02T11:15:07.827Z,3.30
2023-02-02T11:17:30.462Z,3.07
2023-02-02T11:19:55.754Z,3.33
2023-02-02T11:22:38.480Z,3.10
2023-02-02T11:25:05.987Z,3.30
2023-02-02T11:27:30.325Z,3.30
2023-02-02T11:29:54.709Z,3.20
2023-02-02T11:32:21.150Z,3.60
2023-02-02T11:34:43.482Z,3.77
2023-02-02T11:37:22.100Z,3.43
2023-02-02T11:39:45.348Z,3.57
2023-02-02T11:42:16.322Z,3.80
2023-02-02T11:44:39.648Z,3.33
2023-02-02T11:47:03.280Z,3.97
2023-02-02T11:49:28.491Z,3.43
2023-02-02T11:52:00.788Z,3.20
2023-02-02T11:54:33.416Z,2.93
2023-02-02T11:56:59.906Z,2.93
2023-02-02T11:59:30.379Z,3.57
2023-02-02T12:02:13.500Z,3.70
2023-02-02T12:04:44.695Z,2.90
2023-02-02T12:07:26.033Z,2.83
2023-02-02T12:09:48.620Z,3.07
2023-02-02T12:12:21.043Z,2.70
2023-02-02T12:15:00.703Z,3.23
2023-02-02T12:17:31.715Z,2.90
2023-02-02T12:20:03.956Z,3.20
2023-02-02T12:22:38.744Z,3.00
2023-02-02T12:25:11.636Z,2.73
2023-02-02T12:27:37.023Z,3.87
2023-02-02T12:30:02.194Z,3.13
2023-02-02T12:32:27.842Z,3.27
2023-02-02T12:34:58.401Z,3.60
2023-02-02T12:37:50.231Z,2.83
2023-02-02T12:40:25.226Z,3.33
2023-02-02T12:43:04.495Z,3.07
2023-02-02T12:45:28.342Z,3.23
2023-02-02T12:47:53.440Z,3.40
2023-02-02T12:50:15.983Z,2.70
2023-02-02T12:52:41.485Z,3.00
2023-02-02T12:55:16.069Z,3.10
2023-02-02T12:57:51.290Z,3.00
2023-02-02T13:00:15.900Z,2.83
2023-02-02T13:02:56.858Z,3.27
2023-02-02T13:05:49.770Z,3.03
2023-02-02T13:08:32.201Z,2.73
2023-02-02T13:10:58.199Z,3.30
2023-02-02T13:13:24.565Z,2.80
2023-02-02T13:15:49.741Z,3.33
2023-02-02T13:18:20.645Z,3.03
2023-02-02T13:20:48.965Z,3.17
2023-02-02T13:23:16.094Z,2.97
2023-02-02T13:25:43.974Z,2.80
2023-02-02T13:28:07.670Z,3.37
2023-02-02T13:30:34.969Z,3.30
2023-02-02T13:33:01.974Z,3.60
2023-02-02T13:35:25.232Z,2.83
2023-02-02T13:38:00.132Z,3.07
2023-02-02T13:40:35.082Z,3.70
2023-02-02T13:42:57.812Z,4.10
2023-02-02T13:45:25.034Z,3.07
2023-02-02T13:47:54.165Z,2.80
2023-02-02T13:50:18.124Z,3.40
2023-02-02T13:53:02.190Z,3.47
2023-02-02T13:55:43.451Z,3.50
2023-02-02T13:58:14.252Z,3.03
2023-02-02T14:00:45.860Z,2.83
2023-02-02T14:03:23.450Z,3.57
2023-02-02T14:06:01.865Z,3.50
2023-02-02T14:08:25.430Z,4.10
2023-02-02T14:11:04.609Z,2.80
2023-02-02T14:13:48.119Z,3.10
2023-02-02T14:16:30.085Z,3.20
2023-02-02T14:18:56.914Z,3.00
2023-02-02T14:21:34.498Z,2.87
2023-02-02T14:23:57.913Z,2.60
2023-02-02T14:26:41.691Z,3.73
2023-02-02T14:29:04.235Z,2.97
2023-02-02T14:31:31.776Z,2.97
2023-02-02T14:34:14.104Z,3.07
2023-02-02T14:36:40.131Z,2.90
2023-02-02T14:39:09.829Z,3.17
2023-02-02T14:41:54.576Z,2.70
2023-02-02T14:44:19.699Z,3.17
2023-02-02T14:46:48.496Z,2.77
2023-02-02T14:49:14.831Z,3.47
2023-02-02T14:51:46.721Z,3.10
2023-02-02T14:54:18.760Z,2.80
2023-02-02T14:57:01.455Z,2.67
2023-02-02T14:59:25.953Z,2.87
2023-02-02T15:02:01.981Z,3.23
2023-02-02T15:04:27.621Z,2.80
2023-02-02T15:06:52.440Z,3.57
2023-02-02T15:09:21.023Z,3.03
2023-02-02T15:12:02.133Z,3.57
2023-02-02T15:14:26.169Z,3.00
2023-02-02T15:16:48.498Z,3.03
2023-02-02T15:19:23.527Z,3.30
2023-02-02T15:21:47.064Z,2.53
2023-02-02T15:24:18.840Z,3.03
2023-02-02T15:26:42.973Z,2.97
2023-02-02T15:29:14.515Z,2.93
2023-02-02T15:31:47.590Z,3.27
2023-02-02T15:34:37.660Z,2.83
2023-02-02T15:37:03.180Z,3.10
2023-02-02T15:39:28.570Z,3.63
2023-02-02T15:42:11.382Z,2.83
2023-02-02T15:44:38.914Z,3.57
2023-02-02T15:47:01.780Z,3.33
2023-02-02T15:49:36.091Z,3.27
2023-02-02T15:51:59.873Z,3.00
2023-02-02T15:54:36.239Z,3.83
2023-02-02T15:57:22.219Z,3.77
2023-02-02T15:59:46.125Z,4.00
2023-02-02T16:02:09.739Z,3.53
2023-02-02T16:04:37.437Z,3.33
2023-02-02T16:07:02.209Z,3.53
2023-02-02T16:09:28.924Z,4.03
2023-02-02T16:11:52.215Z,3.30
2023-02-02T16:14:19.049Z,3.27
2023-02-02T16:16:42.422Z,3.87
2023-02-02T16:19:22.369Z,3.40
2023-02-02T16:21:52.326Z,3.40
2023-02-02T16:24:40.752Z,3.63
2023-02-02T16:27:06.325Z,3.17
2023-02-02T16:29:30.469Z,3.00
2023-02-02T16:31:52.905Z,3.67
2023-02-02T16:34:17.043Z,3.30
2023-02-02T16:36:39.492Z,3.53
2023-02-02T16:39:01.907Z,3.90
2023-02-02T16:41:28.959Z,3.03
2023-02-02T16:44:00.946Z,3.20
2023-02-02T16:46:44.154Z,3.00
2023-02-02T16:49:17.971Z,3.10
2023-02-02T16:51:40.601Z,3.17
2023-02-02T16:54:14.225Z,3.40
2023-02-02T16:56:40.628Z,3.43
2023-02-02T16:59:06.350Z,2.87
2023-02-02T17:01:43.015Z,2.80
2023-02-02T17:04:06.889Z,3.13
2023-02-02T17:06:45.820Z,3.93
2023-02-02T17:09:26.921Z,3.90
2023-02-02T17:12:36.754Z,3.07
2023-02-02T17:15:08.495Z,3.60
2023-02-02T17:17:33.803Z,3.03
2023-02-02T17:19:56.282Z,3.10
2023-02-02T17:22:20.867Z,3.63
2023-02-02T17:24:45.404Z,4.10
2023-02-02T17:27:12.258Z,3.93
2023-02-02T17:29:35.517Z,4.13
2023-02-02T17:32:00.694Z,3.77
2023-02-02T17:34:26.509Z,4.17
2023-02-02T17:36:48.906Z,4.13
2023-02-02T17:39:18.463Z,4.27
2023-02-02T17:41:40.804Z,3.97
2023-02-02T17:44:06.405Z,4.13
2023-02-02T17:46:30.962Z,3.20
2023-02-02T17:48:53.440Z,3.77
2023-02-02T17:51:16.630Z,3.67
2023-02-02T17:53:39.025Z,3.40
2023-02-02T17:56:01.260Z,3.80
2023-02-02T18:01:04.486Z,3.87
2023-02-02T18:03:28.158Z,3.50
2023-02-02T18:05:50.901Z,3.70
2023-02-02T18:08:13.569Z,2.70
2023-02-02T18:10:37.875Z,3.47
2023-02-02T18:13:00.282Z,3.40
2023-02-02T18:15:22.701Z,4.03
2023-02-02T18:17:45.213Z,5.30
2023-02-02T18:20:10.347Z,4.00
2023-02-02T18:22:33.601Z,4.00
2023-02-02T18:24:56.545Z,4.87
2023-02-02T18:27:20.462Z,4.70
2023-02-02T18:29:43.069Z,4.00
2023-02-02T18:32:05.618Z,3.47
2023-02-02T18:34:31.908Z,3.20
2023-02-02T18:36:55.015Z,3.03
2023-02-02T18:39:17.434Z,4.50
2023-02-02T18:41:39.662Z,3.60
2023-02-02T18:44:01.996Z,4.67
2023-02-02T18:46:24.566Z,6.03
2023-02-02T18:48:47.188Z,4.60
2023-02-02T18:51:14.847Z,4.83
2023-02-02T18:53:40.366Z,4.30
2023-02-02T18:56:12.798Z,3.60
2023-02-02T18:58:35.789Z,3.67
2023-02-02T19:00:58.206Z,3.97
2023-02-02T19:03:20.685Z,4.53
2023-02-02T19:06:02.951Z,4.30
2023-02-02T19:08:25.454Z,4.40
2023-02-02T19:10:47.869Z,4.13
2023-02-02T19:13:10.693Z,4.70
2023-02-02T19:15:38.721Z,4.70
2023-02-02T19:18:01.920Z,5.17
2023-02-02T19:20:26.086Z,5.43
2023-02-02T19:22:48.609Z,5.00
2023-02-02T19:25:12.196Z,5.40
2023-02-02T19:27:36.290Z,5.87
2023-02-02T19:30:01.451Z,6.23
2023-02-02T19:32:25.861Z,6.43
2023-02-02T19:34:58.656Z,6.40
2023-02-02T19:37:29.218Z,7.23
2023-02-02T19:39:51.968Z,6.80
2023-02-02T19:42:14.331Z,6.73
2023-02-02T19:44:38.857Z,5.73
2023-02-02T19:47:02.766Z,6.40
2023-02-02T19:49:31.700Z,6.80
2023-02-02T19:51:55.644Z,7.07
2023-02-02T19:54:42.060Z,6.90
2023-02-02T19:57:16.363Z,7.27
2023-02-02T19:59:40.065Z,7.17
2023-02-02T20:02:21.954Z,8.43
2023-02-02T20:04:50.337Z,7.10
2023-02-02T20:07:14.796Z,8.37
2023-02-02T20:09:44.247Z,8.00
2023-02-02T20:12:22.748Z,9.30
2023-02-02T20:14:52.403Z,9.50
2023-02-02T20:17:21.542Z,8.27
2023-02-02T20:19:45.781Z,8.03
2023-02-02T20:22:32.939Z,9.90
2023-02-02T20:24:57.125Z,8.67
2023-02-02T20:27:20.959Z,7.90
2023-02-02T20:29:47.994Z,8.63
2023-02-02T20:32:22.039Z,8.70
2023-02-02T20:34:46.013Z,8.43
2023-02-02T20:37:14.481Z,10.13
2023-02-02T20:39:40.122Z,10.00
2023-02-02T20:42:03.022Z,9.30
2023-02-02T20:44:26.753Z,9.80
2023-02-02T20:46:49.163Z,8.93
2023-02-02T20:49:11.615Z,9.80
2023-02-02T20:51:33.911Z,10.37
2023-02-02T20:53:56.523Z,13.37
2023-02-02T20:56:19.235Z,9.23
2023-02-02T20:58:42.252Z,9.57
2023-02-02T21:01:06.891Z,9.90
2023-02-02T21:03:29.241Z,10.07
2023-02-02T21:06:10.601Z,9.70
2023-02-02T21:08:33.643Z,9.73
2023-02-02T21:10:55.949Z,10.67
2023-02-02T21:13:19.467Z,9.40
2023-02-02T21:15:41.671Z,9.87
2023-02-02T21:18:04.525Z,10.03
2023-02-02T21:20:33.004Z,9.77
2023-02-02T21:22:56.777Z,10.00
2023-02-02T21:25:19.402Z,9.10
2023-02-02T21:27:51.166Z,9.20
2023-02-02T21:30:14.326Z,9.37
2023-02-02T21:32:36.681Z,8.40
2023-02-02T21:34:59.071Z,8.83
2023-02-02T21:37:21.421Z,8.87
2023-02-02T21:39:48.770Z,9.10
2023-02-02T21:42:16.645Z,9.67
2023-02-02T21:44:40.848Z,8.60
2023-02-02T21:47:03.087Z,8.73
2023-02-02T21:49:26.599Z,9.10
2023-02-02T21:51:49.809Z,8.27
2023-02-02T21:54:29.330Z,8.80
2023-02-02T21:56:52.205Z,8.77
2023-02-02T21:59:19.146Z,8.50
2023-02-02T22:01:42.096Z,7.67
2023-02-02T22:04:04.914Z,9.43
2023-02-02T22:06:34.348Z,9.00
2023-02-02T22:09:01.452Z,8.10
2023-02-02T22:11:23.817Z,8.17
2023-02-02T22:13:46.124Z,7.47
2023-02-02T22:16:14.445Z,7.40
2023-02-02T22:18:39.877Z,7.80
2023-02-02T22:21:02.142Z,8.47
2023-02-02T22:23:25.515Z,7.97
2023-02-02T22:25:48.350Z,8.13
2023-02-02T22:28:24.475Z,7.20
2023-02-02T22:30:47.014Z,7.00
2023-02-02T22:33:14.234Z,6.70
2023-02-02T22:35:49.871Z,6.47
2023-02-02T22:38:16.302Z,6.17
2023-02-02T22:40:38.845Z,5.80
2023-02-02T22:43:02.506Z,6.03
2023-02-02T22:45:25.212Z,5.23
2023-02-02T22:47:48.312Z,5.23
2023-02-02T22:50:10.980Z,4.97
2023-02-02T22:52:33.497Z,5.30
2023-02-02T22:54:55.710Z,5.30
2023-02-02T22:57:18.056Z,5.00
2023-02-02T22:59:40.740Z,5.33
2023-02-02T23:02:03.049Z,4.63
2023-02-02T23:04:25.569Z,5.00
2023-02-02T23:06:48.342Z,4.20
2023-02-02T23:09:10.628Z,4.10
2023-02-02T23:11:32.859Z,4.50
2023-02-02T23:13:55.542Z,3.90
2023-02-02T23:16:26.837Z,4.23
2023-02-02T23:18:49.198Z,4.03
2023-02-02T23:21:11.639Z,4.40
2023-02-02T23:23:34.073Z,3.93
2023-02-02T23:26:00.217Z,4.57
2023-02-02T23:28:25.423Z,4.83
2023-02-02T23:30:48.097Z,5.07
2023-02-02T23:33:11.033Z,5.40
2023-02-02T23:35:33.531Z,5.10
2023-02-02T23:37:56.085Z,5.13
2023-02-02T23:40:19.894Z,5.30
2023-02-02T23:42:42.314Z,4.97
2023-02-02T23:45:04.814Z,5.20
2023-02-02T23:47:42.304Z,5.30
2023-02-02T23:50:06.000Z,5.17
2023-02-02T23:52:28.463Z,5.70
2023-02-02T23:54:52.742Z,5.40
2023-02-02T23:57:15.249Z,5.53
2023-02-02T23:59:37.803Z,5.63
